Terminal Aerodrome Forecast
Issued by NWS Twin Cities, MN

Home | Current Version | Previous Version | Graphics & Text | Print | Product List | Glossary On
Versions: 1 2 3 4 5 6 7 8 9 10 11 12
000
FTUS43 KMPX 151120
TAFSTC
TAF
KSTC 151120Z 1512/1612 13008KT P6SM SKC
     FM151500 16018G25KT P6SM SCT250
     FM160100 14010KT P6SM SCT050 BKN110=

USA.gov is the U.S. government's official web portal to all federal, state and local government web resources and services.